createdAt,value
2019-05-03T00:00:05.453Z,8.81
2019-05-03T00:02:53.260Z,8.69
2019-05-03T00:05:32.333Z,8.67
2019-05-03T00:08:03.485Z,8.61
2019-05-03T00:10:33.234Z,8.56
2019-05-03T00:13:02.912Z,8.58
2019-05-03T00:15:52.231Z,8.59
2019-05-03T00:18:23.115Z,8.57
2019-05-03T00:20:52.813Z,8.58
2019-05-03T00:23:22.913Z,8.56
2019-05-03T00:25:52.883Z,8.55
2019-05-03T00:28:23.399Z,8.49
2019-05-03T00:30:53.057Z,8.48
2019-05-03T00:33:22.736Z,8.47
2019-05-03T00:35:54.043Z,8.43
2019-05-03T00:38:23.728Z,8.44
2019-05-03T00:40:53.348Z,8.47
2019-05-03T00:43:23.000Z,8.50
2019-05-03T00:45:52.657Z,8.49
2019-05-03T00:48:22.269Z,8.50
2019-05-03T00:50:51.923Z,8.52
2019-05-03T00:53:22.445Z,8.48
2019-05-03T00:55:53.032Z,8.44
2019-05-03T00:58:22.720Z,8.42
2019-05-03T01:00:52.637Z,8.40
2019-05-03T01:03:22.307Z,8.42
2019-05-03T01:05:52.928Z,8.43
2019-05-03T01:08:22.997Z,8.46
2019-05-03T01:10:52.652Z,8.50
2019-05-03T01:13:22.270Z,8.48
2019-05-03T01:15:53.534Z,8.51
2019-05-03T01:18:23.249Z,8.50
2019-05-03T01:20:52.868Z,8.51
2019-05-03T01:23:22.590Z,8.51
2019-05-03T01:25:52.280Z,8.36
2019-05-03T01:28:21.996Z,8.38
2019-05-03T01:30:51.978Z,8.38
2019-05-03T01:33:22.604Z,8.39
2019-05-03T01:35:52.481Z,8.37
2019-05-03T01:38:22.663Z,8.35
2019-05-03T01:40:52.541Z,8.43
2019-05-03T01:43:22.349Z,8.49
2019-05-03T01:45:52.033Z,8.44
2019-05-03T01:48:41.514Z,8.48
2019-05-03T01:51:12.393Z,8.39
2019-05-03T01:53:42.115Z,8.43
2019-05-03T01:56:11.900Z,8.37
2019-05-03T01:58:41.782Z,8.48
2019-05-03T02:01:31.573Z,8.45
2019-05-03T02:04:05.927Z,8.45
2019-05-03T02:06:35.585Z,8.47
2019-05-03T02:09:07.799Z,8.61
2019-05-03T02:11:37.460Z,8.52
2019-05-03T02:14:07.090Z,8.55
2019-05-03T02:16:38.500Z,8.55
2019-05-03T02:19:08.240Z,8.52
2019-05-03T02:21:37.860Z,8.48
2019-05-03T02:24:07.548Z,8.50
2019-05-03T02:26:37.199Z,8.57
2019-05-03T02:29:06.890Z,8.56
2019-05-03T02:31:37.626Z,8.56
2019-05-03T02:34:07.246Z,8.60
2019-05-03T02:36:38.139Z,8.55
2019-05-03T02:39:13.329Z,8.58
2019-05-03T02:41:41.722Z,8.57
2019-05-03T02:44:15.470Z,8.58
2019-05-03T02:46:45.919Z,8.63
2019-05-03T02:49:26.163Z,8.66
2019-05-03T02:51:55.801Z,8.58
2019-05-03T02:54:26.916Z,8.58
2019-05-03T02:56:56.846Z,8.63
2019-05-03T02:59:26.684Z,8.57
2019-05-03T03:01:56.299Z,8.62
2019-05-03T03:04:26.918Z,8.55
2019-05-03T03:06:56.731Z,8.58
2019-05-03T03:09:26.354Z,8.50
2019-05-03T03:11:57.440Z,8.47
2019-05-03T03:14:27.059Z,8.50
2019-05-03T03:16:56.688Z,8.51
2019-05-03T03:19:27.917Z,8.51
2019-05-03T03:21:59.161Z,8.52
2019-05-03T03:24:28.812Z,8.55
2019-05-03T03:26:59.128Z,8.53
2019-05-03T03:29:28.790Z,8.53
2019-05-03T03:32:01.733Z,8.53
2019-05-03T03:34:39.013Z,8.54
2019-05-03T03:37:10.591Z,8.54
2019-05-03T03:39:40.411Z,8.54
2019-05-03T03:42:10.597Z,8.55
2019-05-03T03:44:40.262Z,8.57
2019-05-03T03:47:10.147Z,8.60
2019-05-03T03:49:39.801Z,8.64
2019-05-03T03:52:09.422Z,8.66
2019-05-03T03:54:39.049Z,8.71
2019-05-03T03:57:08.719Z,8.69
2019-05-03T03:59:38.317Z,8.75
2019-05-03T04:02:07.979Z,8.73
2019-05-03T04:04:38.263Z,8.79
2019-05-03T04:07:07.915Z,8.70
2019-05-03T04:09:37.572Z,8.62
2019-05-03T04:12:07.272Z,8.68
2019-05-03T04:14:38.630Z,8.65
2019-05-03T04:17:09.930Z,8.66
2019-05-03T04:19:45.469Z,8.60
2019-05-03T04:22:16.481Z,8.56
2019-05-03T04:24:46.479Z,8.56
2019-05-03T04:27:22.943Z,8.58
2019-05-03T04:29:48.022Z,8.68
2019-05-03T04:32:17.675Z,8.66
2019-05-03T04:34:47.288Z,8.59
2019-05-03T04:37:16.975Z,8.61
2019-05-03T04:39:46.645Z,8.63
2019-05-03T04:42:16.815Z,8.66
2019-05-03T04:44:46.652Z,8.70
2019-05-03T04:47:16.273Z,8.75
2019-05-03T04:49:46.407Z,8.81
2019-05-03T04:52:16.681Z,8.70
2019-05-03T04:54:48.399Z,8.69
2019-05-03T04:57:34.797Z,8.72
2019-05-03T04:59:49.466Z,8.78
2019-05-03T05:02:19.144Z,8.82
2019-05-03T05:04:48.747Z,8.87
2019-05-03T05:07:18.444Z,8.82
2019-05-03T05:09:48.083Z,8.85
2019-05-03T05:12:17.706Z,8.84
2019-05-03T05:14:47.368Z,8.84
2019-05-03T05:17:18.643Z,8.82
2019-05-03T05:19:54.801Z,8.79
2019-05-03T05:22:25.808Z,8.87
2019-05-03T05:24:56.753Z,8.92
2019-05-03T05:27:32.232Z,8.95
2019-05-03T05:30:04.610Z,8.94
2019-05-03T05:32:35.083Z,8.96
2019-05-03T05:35:07.165Z,9.05
2019-05-03T05:37:36.861Z,8.96
2019-05-03T05:40:07.002Z,8.95
2019-05-03T05:42:36.637Z,8.98
2019-05-03T05:45:07.547Z,8.98
2019-05-03T05:47:41.519Z,8.98
2019-05-03T05:50:14.845Z,9.04
2019-05-03T05:52:44.822Z,9.05
2019-05-03T05:55:31.845Z,9.00
2019-05-03T05:58:07.496Z,9.00
2019-05-03T06:00:37.091Z,9.03
2019-05-03T06:03:06.741Z,9.05
2019-05-03T06:05:36.377Z,9.15
2019-05-03T06:08:25.750Z,9.14
2019-05-03T06:10:57.016Z,9.15
2019-05-03T06:13:34.463Z,9.19
2019-05-03T06:16:24.548Z,9.24
2019-05-03T06:18:56.329Z,9.27
2019-05-03T06:21:35.195Z,9.29
2019-05-03T06:24:24.935Z,9.24
2019-05-03T06:26:58.782Z,9.31
2019-05-03T06:29:28.520Z,9.29
2019-05-03T06:31:59.837Z,9.27
2019-05-03T06:34:30.039Z,9.30
2019-05-03T06:37:01.343Z,9.29
2019-05-03T06:39:31.034Z,9.24
2019-05-03T06:42:00.703Z,9.34
2019-05-03T06:44:30.445Z,9.40
2019-05-03T06:47:01.121Z,9.49
2019-05-03T06:49:31.586Z,9.50
2019-05-03T06:52:01.232Z,9.52
2019-05-03T06:54:31.975Z,9.58
2019-05-03T06:57:05.711Z,9.64
2019-05-03T06:59:40.230Z,9.88
2019-05-03T07:02:14.840Z,9.83
2019-05-03T07:04:49.286Z,9.90
2019-05-03T07:07:32.364Z,9.84
2019-05-03T07:10:06.350Z,9.90
2019-05-03T07:12:54.707Z,9.94
2019-05-03T07:15:25.292Z,9.97
2019-05-03T07:17:55.738Z,9.89
2019-05-03T07:20:25.908Z,10.01
2019-05-03T07:22:56.095Z,9.96
2019-05-03T07:25:26.010Z,9.92
2019-05-03T07:27:55.858Z,9.97
2019-05-03T07:30:25.500Z,9.88
2019-05-03T07:32:56.774Z,9.87
2019-05-03T07:35:26.447Z,9.84
2019-05-03T07:37:56.159Z,9.78
2019-05-03T07:40:25.843Z,9.88
2019-05-03T07:42:55.749Z,9.87
2019-05-03T07:45:25.696Z,9.85
2019-05-03T07:47:56.060Z,9.79
2019-05-03T07:50:26.181Z,9.94
2019-05-03T07:52:55.982Z,9.84
2019-05-03T07:55:45.714Z,9.87
2019-05-03T07:58:16.791Z,9.94
2019-05-03T08:00:47.976Z,10.09
2019-05-03T08:03:17.655Z,10.22
2019-05-03T08:05:47.300Z,10.29
2019-05-03T08:08:16.981Z,10.42
2019-05-03T08:10:46.684Z,10.49
2019-05-03T08:13:16.328Z,10.47
2019-05-03T08:15:46.009Z,10.58
2019-05-03T08:18:15.712Z,10.70
2019-05-03T08:20:45.458Z,10.80
2019-05-03T08:23:26.364Z,10.87
2019-05-03T08:25:46.646Z,10.91
2019-05-03T08:28:16.283Z,10.92
2019-05-03T08:31:04.758Z,10.91
2019-05-03T08:33:55.346Z,11.21
2019-05-03T08:36:25.547Z,11.24
2019-05-03T08:38:56.340Z,10.98
2019-05-03T08:41:29.143Z,10.96
2019-05-03T08:43:58.839Z,10.88
2019-05-03T08:46:28.480Z,10.92
2019-05-03T08:48:58.123Z,10.77
2019-05-03T08:51:27.928Z,10.76
2019-05-03T08:53:57.600Z,10.73
2019-05-03T08:56:27.254Z,10.72
2019-05-03T08:58:56.986Z,10.74
2019-05-03T09:01:26.623Z,10.72
2019-05-03T09:03:56.271Z,10.64
2019-05-03T09:06:25.938Z,10.70
2019-05-03T09:08:57.286Z,10.76
2019-05-03T09:11:33.661Z,10.62
2019-05-03T09:14:04.567Z,10.59
2019-05-03T09:16:35.569Z,10.73
2019-05-03T09:19:05.736Z,10.66
2019-05-03T09:21:35.799Z,10.56
2019-05-03T09:24:05.430Z,10.61
2019-05-03T09:26:35.327Z,10.54
2019-05-03T09:29:05.649Z,10.58
2019-05-03T09:31:35.485Z,10.62
2019-05-03T09:34:08.072Z,10.48
2019-05-03T09:36:36.536Z,10.38
2019-05-03T09:39:08.230Z,10.24
2019-05-03T09:41:37.939Z,10.08
2019-05-03T09:44:07.562Z,9.89
2019-05-03T09:46:37.209Z,9.82
2019-05-03T09:49:13.193Z,9.65
2019-05-03T09:51:38.180Z,9.59
2019-05-03T09:54:09.524Z,9.58
2019-05-03T09:56:58.870Z,9.43
2019-05-03T09:59:29.222Z,9.47
2019-05-03T10:01:59.934Z,9.38
2019-05-03T10:04:30.055Z,9.37
2019-05-03T10:06:59.783Z,9.39
2019-05-03T10:49:28.917Z,9.70
2019-05-03T10:52:05.450Z,9.78
2019-05-03T10:54:35.870Z,9.91
2019-05-03T10:57:07.850Z,9.81
2019-05-03T10:59:38.427Z,9.88
2019-05-03T11:02:12.806Z,9.93
2019-05-03T11:04:43.694Z,10.00
2019-05-03T11:07:14.744Z,10.20
2019-05-03T11:09:49.497Z,10.34
2019-05-03T11:12:17.624Z,10.37
2019-05-03T11:14:47.930Z,10.51
2019-05-03T11:17:17.653Z,10.60
2019-05-03T11:19:47.273Z,10.73
2019-05-03T11:22:17.947Z,10.80
2019-05-03T11:24:47.831Z,10.95
2019-05-03T11:27:25.565Z,10.94
2019-05-03T11:29:55.608Z,11.03
2019-05-03T11:32:32.581Z,11.27
2019-05-03T11:35:06.878Z,11.51
2019-05-03T11:37:45.288Z,11.41
2019-05-03T11:40:19.038Z,11.19
2019-05-03T11:42:50.238Z,11.06
2019-05-03T11:45:20.582Z,11.20
2019-05-03T11:47:50.287Z,11.08
2019-05-03T11:50:19.954Z,11.22
2019-05-03T11:52:50.019Z,11.19
2019-05-03T11:55:20.497Z,11.36
2019-05-03T11:57:50.241Z,11.28
2019-05-03T12:00:22.058Z,11.58
2019-05-03T12:02:55.468Z,11.64
2019-05-03T12:05:29.660Z,11.54
2019-05-03T12:07:59.610Z,11.44
2019-05-03T12:10:45.970Z,11.59
2019-05-03T12:13:04.908Z,11.65
2019-05-03T12:15:35.245Z,11.73
2019-05-03T12:18:08.069Z,11.70
2019-05-03T12:20:39.521Z,12.10
2019-05-03T12:23:10.618Z,12.13
2019-05-03T12:25:41.563Z,12.25
2019-05-03T12:28:11.931Z,12.21
2019-05-03T12:30:42.130Z,11.99
2019-05-03T12:33:11.826Z,11.97
2019-05-03T12:35:41.487Z,11.93
2019-05-03T12:38:11.346Z,12.12
2019-05-03T12:40:41.236Z,12.10
2019-05-03T12:43:11.414Z,12.16
2019-05-03T12:45:41.188Z,12.09
2019-05-03T12:48:10.809Z,12.13
2019-05-03T12:50:40.868Z,12.02
2019-05-03T12:53:11.799Z,11.92
2019-05-03T12:55:41.605Z,11.97
2019-05-03T12:58:15.081Z,11.76
2019-05-03T13:00:52.773Z,11.53
2019-05-03T13:03:25.533Z,11.39
2019-05-03T13:05:55.680Z,11.27
2019-05-03T13:08:35.395Z,11.16
2019-05-03T13:11:06.828Z,11.14
2019-05-03T13:13:36.682Z,11.06
2019-05-03T13:16:07.503Z,10.87
2019-05-03T13:18:37.894Z,10.84
2019-05-03T13:21:07.646Z,10.87
2019-05-03T13:23:37.400Z,11.00
2019-05-03T13:26:07.898Z,10.95
2019-05-03T13:28:37.838Z,11.07
2019-05-03T13:31:07.823Z,11.21
2019-05-03T13:33:37.485Z,11.21
2019-05-03T13:36:07.331Z,11.18
2019-05-03T13:38:37.085Z,11.31
2019-05-03T13:41:07.226Z,11.43
2019-05-03T13:43:38.727Z,11.49
2019-05-03T13:46:09.257Z,11.48
2019-05-03T13:48:44.901Z,11.20
2019-05-03T13:51:10.652Z,11.06
2019-05-03T13:53:41.663Z,10.97
2019-05-03T13:56:15.152Z,11.05
2019-05-03T13:58:44.749Z,11.02
2019-05-03T14:01:17.031Z,11.11
2019-05-03T14:03:46.531Z,11.08
2019-05-03T14:06:16.228Z,11.08
2019-05-03T14:08:45.899Z,11.20
2019-05-03T14:11:15.736Z,11.13
2019-05-03T14:13:45.543Z,11.14
2019-05-03T14:16:15.276Z,11.09
2019-05-03T14:18:46.534Z,11.10
2019-05-03T14:21:24.615Z,11.05
2019-05-03T14:24:10.230Z,10.99
2019-05-03T14:26:41.418Z,10.79
2019-05-03T14:29:11.054Z,10.81
2019-05-03T14:31:40.762Z,10.67
2019-05-03T14:34:10.572Z,10.59
2019-05-03T14:36:40.279Z,10.56
2019-05-03T14:39:10.506Z,10.43
2019-05-03T14:41:40.649Z,10.38
2019-05-03T14:44:10.399Z,10.22
2019-05-03T14:46:40.612Z,10.17
2019-05-03T14:49:10.317Z,10.07
2019-05-03T14:51:40.086Z,9.97
2019-05-03T14:54:10.721Z,9.87
2019-05-03T14:56:45.649Z,9.84
2019-05-03T14:59:37.302Z,9.74
2019-05-03T15:02:09.498Z,9.67
2019-05-03T15:04:40.171Z,9.56
2019-05-03T15:07:10.326Z,9.50
2019-05-03T15:09:40.884Z,9.49
2019-05-03T15:12:11.038Z,9.53
2019-05-03T15:14:41.251Z,9.51
2019-05-03T15:17:11.400Z,9.49
2019-05-03T15:19:42.935Z,9.50
2019-05-03T15:22:14.664Z,9.50
2019-05-03T15:24:46.694Z,9.55
2019-05-03T15:27:16.880Z,9.62
2019-05-03T15:29:46.642Z,9.68
2019-05-03T15:32:16.853Z,9.70
2019-05-03T15:34:47.044Z,9.70
2019-05-03T15:37:17.997Z,9.75
2019-05-03T15:39:47.656Z,9.80
2019-05-03T15:42:18.946Z,9.79
2019-05-03T15:44:54.544Z,9.80
2019-05-03T15:47:32.273Z,9.85
2019-05-03T15:50:02.110Z,9.87
2019-05-03T15:52:31.810Z,9.88
2019-05-03T15:55:01.476Z,9.90
2019-05-03T15:57:32.077Z,9.84
2019-05-03T16:00:02.335Z,9.75
2019-05-03T16:02:32.440Z,9.74
2019-05-03T16:05:02.079Z,9.79
2019-05-03T16:07:32.366Z,9.83
2019-05-03T16:10:02.099Z,9.90
2019-05-03T16:12:31.948Z,9.94
2019-05-03T16:15:04.527Z,9.93
2019-05-03T16:17:35.434Z,9.93
2019-05-03T16:20:07.070Z,9.92
2019-05-03T16:22:38.867Z,9.96
2019-05-03T16:25:09.421Z,10.02
2019-05-03T16:27:47.167Z,10.05
2019-05-03T16:30:36.448Z,10.07
2019-05-03T16:33:04.666Z,10.09
2019-05-03T16:35:37.767Z,10.09
2019-05-03T16:38:07.610Z,10.10
2019-05-03T16:40:37.508Z,10.15
2019-05-03T16:43:07.814Z,10.20
2019-05-03T16:45:38.616Z,10.17
2019-05-03T16:48:08.804Z,10.17
2019-05-03T16:50:38.746Z,10.16
2019-05-03T16:53:08.466Z,10.13
2019-05-03T16:55:38.210Z,10.11
